sensor_id;sensor_type;location;lat;lon;timestamp;pressure;altitude;pressure_sealevel;temperature;humidity
60417;BME280;46263;44.726;10.396;2022-10-18T00:01:48;101847.16;;;20.94;66.34
60417;BME280;46263;44.726;10.396;2022-10-18T00:04:13;101845.09;;;20.94;65.91
60417;BME280;46263;44.726;10.396;2022-10-18T00:06:38;101842.78;;;20.93;66.28
60417;BME280;46263;44.726;10.396;2022-10-18T00:09:04;101847.38;;;20.96;66.14
60417;BME280;46263;44.726;10.396;2022-10-18T00:11:29;101840.72;;;20.93;65.98
60417;BME280;46263;44.726;10.396;2022-10-18T00:13:56;101843.56;;;20.93;66.06
60417;BME280;46263;44.726;10.396;2022-10-18T00:16:22;101846.41;;;20.93;65.88
60417;BME280;46263;44.726;10.396;2022-10-18T00:18:47;101840.38;;;20.97;65.93
60417;BME280;46263;44.726;10.396;2022-10-18T00:21:17;101838.28;;;20.97;66.17
60417;BME280;46263;44.726;10.396;2022-10-18T00:23:43;101833.34;;;20.98;66.04
60417;BME280;46263;44.726;10.396;2022-10-18T00:26:11;101837.53;;;20.97;65.89
60417;BME280;46263;44.726;10.396;2022-10-18T00:28:37;101830.31;;;20.96;65.94
60417;BME280;46263;44.726;10.396;2022-10-18T00:31:13;101831.63;;;20.95;65.66
60417;BME280;46263;44.726;10.396;2022-10-18T00:33:41;101833.72;;;20.94;65.74
60417;BME280;46263;44.726;10.396;2022-10-18T00:36:07;101830.31;;;20.96;65.95
60417;BME280;46263;44.726;10.396;2022-10-18T00:38:33;101823.09;;;20.95;65.99
60417;BME280;46263;44.726;10.396;2022-10-18T00:40:58;101823.09;;;20.95;66.11
60417;BME280;46263;44.726;10.396;2022-10-18T00:43:24;101824.63;;;20.96;65.78
60417;BME280;46263;44.726;10.396;2022-10-18T00:45:49;101824.41;;;20.94;65.77
60417;BME280;46263;44.726;10.396;2022-10-18T00:48:16;101824.41;;;20.94;66.19
60417;BME280;46263;44.726;10.396;2022-10-18T00:50:43;101824.41;;;20.94;65.92
60417;BME280;46263;44.726;10.396;2022-10-18T00:53:14;101815.13;;;20.93;65.80
60417;BME280;46263;44.726;10.396;2022-10-18T00:55:40;101823.09;;;20.95;65.94
60417;BME280;46263;44.726;10.396;2022-10-18T00:58:07;101820.03;;;20.93;66.02
60417;BME280;46263;44.726;10.396;2022-10-18T01:00:33;101814.34;;;20.93;65.80
60417;BME280;46263;44.726;10.396;2022-10-18T01:03:03;101813.59;;;20.92;65.67
60417;BME280;46263;44.726;10.396;2022-10-18T01:05:28;101822.34;;;20.94;65.72
60417;BME280;46263;44.726;10.396;2022-10-18T01:11:04;101820.81;;;20.93;65.90
60417;BME280;46263;44.726;10.396;2022-10-18T01:16:24;101807.16;;;20.92;66.14
60417;BME280;46263;44.726;10.396;2022-10-18T01:19:19;101802.97;;;20.93;65.97
60417;BME280;46263;44.726;10.396;2022-10-18T01:21:56;101799.41;;;20.92;65.86
60417;BME280;46263;44.726;10.396;2022-10-18T01:32:44;101797.31;;;20.93;65.89
60417;BME280;46263;44.726;10.396;2022-10-18T01:35:16;101788.97;;;20.95;65.86
60417;BME280;46263;44.726;10.396;2022-10-18T01:37:45;101788.78;;;20.93;65.87
60417;BME280;46263;44.726;10.396;2022-10-18T01:40:15;101787.44;;;20.94;65.91
60417;BME280;46263;44.726;10.396;2022-10-18T01:42:44;101785.94;;;20.93;65.75
60417;BME280;46263;44.726;10.396;2022-10-18T01:45:11;101787.44;;;20.94;65.86
60417;BME280;46263;44.726;10.396;2022-10-18T01:47:37;101775.88;;;20.92;65.86
60417;BME280;46263;44.726;10.396;2022-10-18T01:50:05;101773.03;;;20.92;65.76
60417;BME280;46263;44.726;10.396;2022-10-18T01:52:30;101777.41;;;20.93;65.75
60417;BME280;46263;44.726;10.396;2022-10-18T01:54:56;101775.88;;;20.92;65.99
60417;BME280;46263;44.726;10.396;2022-10-18T01:57:40;101773.03;;;20.92;65.91
60417;BME280;46263;44.726;10.396;2022-10-18T02:02:59;101773.03;;;20.92;66.12
60417;BME280;46263;44.726;10.396;2022-10-18T02:05:37;101771.53;;;20.91;65.90
60417;BME280;46263;44.726;10.396;2022-10-18T02:10:44;101777.97;;;20.91;65.96
60417;BME280;46263;44.726;10.396;2022-10-18T02:13:14;101777.22;;;20.91;65.63
60417;BME280;46263;44.726;10.396;2022-10-18T02:15:45;101775.13;;;20.91;66.07
60417;BME280;46263;44.726;10.396;2022-10-18T02:18:22;101774.38;;;20.91;66.04
60417;BME280;46263;44.726;10.396;2022-10-18T02:20:50;101772.06;;;20.89;65.71
60417;BME280;46263;44.726;10.396;2022-10-18T02:23:19;101767.91;;;20.90;65.79
60417;BME280;46263;44.726;10.396;2022-10-18T02:25:46;101774.91;;;20.89;65.95
60417;BME280;46263;44.726;10.396;2022-10-18T02:28:12;101771.53;;;20.91;65.90
60417;BME280;46263;44.726;10.396;2022-10-18T02:30:48;101770.75;;;20.90;66.01
60417;BME280;46263;44.726;10.396;2022-10-18T02:33:31;101755.78;;;20.90;65.87
60417;BME280;46263;44.726;10.396;2022-10-18T02:36:03;101752.38;;;20.91;65.98
60417;BME280;46263;44.726;10.396;2022-10-18T02:38:34;101743.84;;;20.91;65.77
60417;BME280;46263;44.726;10.396;2022-10-18T02:41:01;101748.59;;;20.89;65.90
60417;BME280;46263;44.726;10.396;2022-10-18T02:43:27;101742.53;;;20.92;65.96
60417;BME280;46263;44.726;10.396;2022-10-18T02:45:52;101752.38;;;20.91;65.70
60417;BME280;46263;44.726;10.396;2022-10-18T02:48:18;101748.00;;;20.90;66.00
60417;BME280;46263;44.726;10.396;2022-10-18T02:50:43;101750.84;;;20.90;65.66
60417;BME280;46263;44.726;10.396;2022-10-18T02:53:09;101752.38;;;20.91;65.80
60417;BME280;46263;44.726;10.396;2022-10-18T02:55:34;101754.47;;;20.91;65.78
60417;BME280;46263;44.726;10.396;2022-10-18T02:58:00;101750.28;;;20.92;65.74
60417;BME280;46263;44.726;10.396;2022-10-18T03:00:25;101749.53;;;20.91;65.73
60417;BME280;46263;44.726;10.396;2022-10-18T03:02:50;101754.28;;;20.89;65.85
60417;BME280;46263;44.726;10.396;2022-10-18T03:05:18;101757.13;;;20.89;65.83
60417;BME280;46263;44.726;10.396;2022-10-18T03:07:43;101761.28;;;20.88;66.04
60417;BME280;46263;44.726;10.396;2022-10-18T03:10:08;101762.81;;;20.89;66.12
60417;BME280;46263;44.726;10.396;2022-10-18T03:12:34;101769.22;;;20.89;65.64
60417;BME280;46263;44.726;10.396;2022-10-18T03:14:59;101762.22;;;20.90;65.84
60417;BME280;46263;44.726;10.396;2022-10-18T03:17:25;101765.06;;;20.90;65.62
60417;BME280;46263;44.726;10.396;2022-10-18T03:19:50;101757.31;;;20.91;65.94
60417;BME280;46263;44.726;10.396;2022-10-18T03:22:15;101762.03;;;20.88;65.88
60417;BME280;46263;44.726;10.396;2022-10-18T03:24:41;101766.97;;;20.88;65.92
60417;BME280;46263;44.726;10.396;2022-10-18T03:27:06;101761.28;;;20.88;65.15
60417;BME280;46263;44.726;10.396;2022-10-18T03:29:32;101762.81;;;20.89;65.94
60417;BME280;46263;44.726;10.396;2022-10-18T03:31:57;101759.19;;;20.88;65.88
60417;BME280;46263;44.726;10.396;2022-10-18T03:34:22;101744.22;;;20.88;65.77
60417;BME280;46263;44.726;10.396;2022-10-18T03:36:48;101749.91;;;20.88;65.89
60417;BME280;46263;44.726;10.396;2022-10-18T03:39:13;101744.22;;;20.88;65.87
60417;BME280;46263;44.726;10.396;2022-10-18T03:41:39;101740.06;;;20.89;65.92
60417;BME280;46263;44.726;10.396;2022-10-18T03:44:04;101747.25;;;20.90;65.64
60417;BME280;46263;44.726;10.396;2022-10-18T03:46:30;101742.91;;;20.89;65.96
60417;BME280;46263;44.726;10.396;2022-10-18T03:48:55;101742.91;;;20.89;65.78
60417;BME280;46263;44.726;10.396;2022-10-18T03:51:21;101742.13;;;20.88;65.69
60417;BME280;46263;44.726;10.396;2022-10-18T03:53:46;101741.59;;;20.90;65.88
60417;BME280;46263;44.726;10.396;2022-10-18T03:56:12;101744.97;;;20.88;65.81
60417;BME280;46263;44.726;10.396;2022-10-18T03:58:37;101746.50;;;20.89;65.64
60417;BME280;46263;44.726;10.396;2022-10-18T04:01:02;101747.06;;;20.88;65.80
60417;BME280;46263;44.726;10.396;2022-10-18T04:03:28;101745.75;;;20.89;65.64
60417;BME280;46263;44.726;10.396;2022-10-18T04:05:53;101744.97;;;20.88;65.69
60417;BME280;46263;44.726;10.396;2022-10-18T04:08:19;101749.91;;;20.88;65.96
60417;BME280;46263;44.726;10.396;2022-10-18T04:10:44;101744.22;;;20.88;65.53
60417;BME280;46263;44.726;10.396;2022-10-18T04:13:10;101741.38;;;20.88;65.73
60417;BME280;46263;44.726;10.396;2022-10-18T04:15:35;101744.00;;;20.86;65.79
60417;BME280;46263;44.726;10.396;2022-10-18T04:18:01;101744.22;;;20.88;65.71
60417;BME280;46263;44.726;10.396;2022-10-18T04:20:27;101745.53;;;20.87;65.73
60417;BME280;46263;44.726;10.396;2022-10-18T04:22:53;101749.16;;;20.88;65.65
60417;BME280;46263;44.726;10.396;2022-10-18T04:25:22;101738.53;;;20.88;65.63
60417;BME280;46263;44.726;10.396;2022-10-18T04:27:48;101748.38;;;20.87;65.66
60417;BME280;46263;44.726;10.396;2022-10-18T04:30:14;101742.50;;;20.85;65.88
60417;BME280;46263;44.726;10.396;2022-10-18T04:32:39;101742.50;;;20.85;65.71
60417;BME280;46263;44.726;10.396;2022-10-18T04:35:05;101738.31;;;20.86;65.81
60417;BME280;46263;44.726;10.396;2022-10-18T04:37:32;101742.50;;;20.85;65.54
60417;BME280;46263;44.726;10.396;2022-10-18T04:39:58;101741.16;;;20.86;65.72
60417;BME280;46263;44.726;10.396;2022-10-18T04:42:23;101745.53;;;20.87;65.60
60417;BME280;46263;44.726;10.396;2022-10-18T04:44:48;101742.69;;;20.87;65.72
60417;BME280;46263;44.726;10.396;2022-10-18T04:47:15;101749.69;;;20.86;65.70
60417;BME280;46263;44.726;10.396;2022-10-18T04:49:40;101748.38;;;20.87;65.65
60417;BME280;46263;44.726;10.396;2022-10-18T04:52:06;101741.94;;;20.87;65.86
60417;BME280;46263;44.726;10.396;2022-10-18T04:54:31;101746.09;;;20.86;65.94
60417;BME280;46263;44.726;10.396;2022-10-18T04:56:57;101745.34;;;20.85;65.62
60417;BME280;46263;44.726;10.396;2022-10-18T04:59:22;101741.16;;;20.86;65.87
60417;BME280;46263;44.726;10.396;2022-10-18T05:01:48;101746.66;;;20.84;65.54
60417;BME280;46263;44.726;10.396;2022-10-18T05:04:13;101748.94;;;20.86;65.58
60417;BME280;46263;44.726;10.396;2022-10-18T05:06:39;101741.94;;;20.87;65.66
60417;BME280;46263;44.726;10.396;2022-10-18T05:09:05;101746.84;;;20.86;65.46
60417;BME280;46263;44.726;10.396;2022-10-18T05:11:30;101745.34;;;20.85;65.90
60417;BME280;46263;44.726;10.396;2022-10-18T05:13:56;101740.41;;;20.86;65.51
60417;BME280;46263;44.726;10.396;2022-10-18T05:16:21;101746.84;;;20.86;65.68
60417;BME280;46263;44.726;10.396;2022-10-18T05:18:46;101754.06;;;20.87;65.71
60417;BME280;46263;44.726;10.396;2022-10-18T05:21:12;101746.84;;;20.86;65.53
60417;BME280;46263;44.726;10.396;2022-10-18T05:23:38;101749.91;;;20.88;65.61
60417;BME280;46263;44.726;10.396;2022-10-18T05:26:05;101746.84;;;20.86;65.90
60417;BME280;46263;44.726;10.396;2022-10-18T05:28:31;101748.94;;;20.86;65.71
60417;BME280;46263;44.726;10.396;2022-10-18T05:31:01;101737.56;;;20.86;65.58
60417;BME280;46263;44.726;10.396;2022-10-18T05:33:27;101735.47;;;20.86;65.64
60417;BME280;46263;44.726;10.396;2022-10-18T05:35:52;101733.97;;;20.85;65.69
60417;BME280;46263;44.726;10.396;2022-10-18T05:38:18;101733.97;;;20.85;65.73
60417;BME280;46263;44.726;10.396;2022-10-18T05:40:43;101739.66;;;20.85;65.82
60417;BME280;46263;44.726;10.396;2022-10-18T05:43:08;101736.06;;;20.85;65.65
60417;BME280;46263;44.726;10.396;2022-10-18T05:45:34;101738.13;;;20.84;65.75
60417;BME280;46263;44.726;10.396;2022-10-18T05:47:59;101736.81;;;20.85;65.66
60417;BME280;46263;44.726;10.396;2022-10-18T05:50:25;101736.06;;;20.85;65.83
60417;BME280;46263;44.726;10.396;2022-10-18T05:52:50;101737.38;;;20.84;65.81
60417;BME280;46263;44.726;10.396;2022-10-18T05:55:15;101735.28;;;20.84;65.71
60417;BME280;46263;44.726;10.396;2022-10-18T05:57:41;101730.94;;;20.83;65.77
60417;BME280;46263;44.726;10.396;2022-10-18T06:00:07;101736.63;;;20.83;65.67
60417;BME280;46263;44.726;10.396;2022-10-18T06:02:33;101742.31;;;20.83;65.81
60417;BME280;46263;44.726;10.396;2022-10-18T06:04:58;101743.81;;;20.84;65.53
60417;BME280;46263;44.726;10.396;2022-10-18T06:07:23;101742.50;;;20.85;65.71
60417;BME280;46263;44.726;10.396;2022-10-18T06:09:49;101740.97;;;20.84;65.54
60417;BME280;46263;44.726;10.396;2022-10-18T06:12:14;101748.00;;;20.83;65.43
60417;BME280;46263;44.726;10.396;2022-10-18T06:14:42;101748.00;;;20.83;65.55
60417;BME280;46263;44.726;10.396;2022-10-18T06:17:07;101745.91;;;20.84;65.68
60417;BME280;46263;44.726;10.396;2022-10-18T06:19:33;101746.66;;;20.84;65.72
60417;BME280;46263;44.726;10.396;2022-10-18T06:21:58;101739.47;;;20.83;65.59
60417;BME280;46263;44.726;10.396;2022-10-18T06:24:23;101742.31;;;20.83;65.58
60417;BME280;46263;44.726;10.396;2022-10-18T06:26:49;101739.47;;;20.83;65.58
60417;BME280;46263;44.726;10.396;2022-10-18T06:29:14;101744.38;;;20.83;65.66
60417;BME280;46263;44.726;10.396;2022-10-18T06:31:40;101743.63;;;20.82;65.69
60417;BME280;46263;44.726;10.396;2022-10-18T06:34:05;101751.38;;;20.82;65.88
60417;BME280;46263;44.726;10.396;2022-10-18T06:36:31;101740.78;;;20.82;65.63
60417;BME280;46263;44.726;10.396;2022-10-18T06:38:56;101753.69;;;20.83;65.43
60417;BME280;46263;44.726;10.396;2022-10-18T06:41:22;101759.38;;;20.83;65.77
60417;BME280;46263;44.726;10.396;2022-10-18T06:43:49;101766.38;;;20.82;65.47
60417;BME280;46263;44.726;10.396;2022-10-18T06:46:15;101773.38;;;20.81;65.59
60417;BME280;46263;44.726;10.396;2022-10-18T06:48:40;101772.06;;;20.82;65.58
60417;BME280;46263;44.726;10.396;2022-10-18T06:51:06;101774.91;;;20.82;65.32
60417;BME280;46263;44.726;10.396;2022-10-18T06:53:35;101766.38;;;20.82;65.48
60417;BME280;46263;44.726;10.396;2022-10-18T06:56:02;101773.38;;;20.81;65.61
60417;BME280;46263;44.726;10.396;2022-10-18T06:58:29;101779.06;;;20.81;65.68
60417;BME280;46263;44.726;10.396;2022-10-18T07:00:55;101783.97;;;20.81;65.33
60417;BME280;46263;44.726;10.396;2022-10-18T07:03:21;101781.91;;;20.81;65.64
60417;BME280;46263;44.726;10.396;2022-10-18T07:05:48;101779.06;;;20.81;65.55
60417;BME280;46263;44.726;10.396;2022-10-18T07:08:14;101781.13;;;20.81;65.50
60417;BME280;46263;44.726;10.396;2022-10-18T07:10:39;101776.22;;;20.81;65.65
60417;BME280;46263;44.726;10.396;2022-10-18T07:13:05;101781.13;;;20.81;65.70
60417;BME280;46263;44.726;10.396;2022-10-18T07:15:30;101777.53;;;20.80;65.61
60417;BME280;46263;44.726;10.396;2022-10-18T07:17:55;101779.06;;;20.81;65.58
60417;BME280;46263;44.726;10.396;2022-10-18T07:20:21;101782.47;;;20.80;65.52
60417;BME280;46263;44.726;10.396;2022-10-18T07:22:46;101780.38;;;20.80;65.60
60417;BME280;46263;44.726;10.396;2022-10-18T07:25:12;101778.09;;;20.79;65.62
60417;BME280;46263;44.726;10.396;2022-10-18T07:27:39;101781.69;;;20.79;65.72
60417;BME280;46263;44.726;10.396;2022-10-18T07:30:06;101780.38;;;20.80;65.85
60417;BME280;46263;44.726;10.396;2022-10-18T07:32:32;101787.38;;;20.79;65.84
60417;BME280;46263;44.726;10.396;2022-10-18T07:34:58;101778.09;;;20.79;65.52
60417;BME280;46263;44.726;10.396;2022-10-18T07:37:23;101779.63;;;20.80;65.70
60417;BME280;46263;44.726;10.396;2022-10-18T07:39:48;101784.53;;;20.79;65.67
60417;BME280;46263;44.726;10.396;2022-10-18T07:42:14;101788.16;;;20.80;65.59
60417;BME280;46263;44.726;10.396;2022-10-18T07:44:39;101783.00;;;20.78;65.43
60417;BME280;46263;44.726;10.396;2022-10-18T07:47:05;101785.84;;;20.78;65.52
60417;BME280;46263;44.726;10.396;2022-10-18T07:49:30;101779.06;;;20.81;65.76
60417;BME280;46263;44.726;10.396;2022-10-18T07:51:56;101784.94;;;20.83;66.00
60417;BME280;46263;44.726;10.396;2022-10-18T07:54:21;101776.81;;;20.87;65.79
60417;BME280;46263;44.726;10.396;2022-10-18T07:56:47;101778.34;;;20.88;65.56
60417;BME280;46263;44.726;10.396;2022-10-18T07:59:12;101778.53;;;20.90;65.79
60417;BME280;46263;44.726;10.396;2022-10-18T08:01:38;101774.16;;;20.89;65.80
60417;BME280;46263;44.726;10.396;2022-10-18T08:04:04;101774.56;;;20.93;65.52
60417;BME280;46263;44.726;10.396;2022-10-18T08:06:30;101781.56;;;20.92;65.22
60417;BME280;46263;44.726;10.396;2022-10-18T08:08:55;101783.28;;;20.95;65.64
60417;BME280;46263;44.726;10.396;2022-10-18T08:11:23;101780.66;;;20.97;65.58
60417;BME280;46263;44.726;10.396;2022-10-18T08:13:49;101783.13;;;21.00;65.33
60417;BME280;46263;44.726;10.396;2022-10-18T08:16:21;101786.34;;;21.04;65.57
60417;BME280;46263;44.726;10.396;2022-10-18T08:18:47;101778.41;;;21.03;65.60
60417;BME280;46263;44.726;10.396;2022-10-18T08:21:14;101776.34;;;21.03;65.63
60417;BME280;46263;44.726;10.396;2022-10-18T08:23:41;101783.53;;;21.04;65.32
60417;BME280;46263;44.726;10.396;2022-10-18T08:26:09;101785.63;;;21.04;65.41
60417;BME280;46263;44.726;10.396;2022-10-18T08:28:35;101775.19;;;21.06;65.75
60417;BME280;46263;44.726;10.396;2022-10-18T08:31:11;101778.59;;;21.05;65.59
60417;BME280;46263;44.726;10.396;2022-10-18T08:33:37;101772.91;;;21.05;65.47
60417;BME280;46263;44.726;10.396;2022-10-18T08:36:05;101769.88;;;21.03;65.62
60417;BME280;46263;44.726;10.396;2022-10-18T08:38:35;101778.97;;;21.01;65.70
60417;BME280;46263;44.726;10.396;2022-10-18T08:41:39;101770.66;;;21.03;65.72
60417;BME280;46263;44.726;10.396;2022-10-18T08:44:17;101778.59;;;21.05;65.76
60417;BME280;46263;44.726;10.396;2022-10-18T08:46:46;101773.66;;;21.05;65.64
60417;BME280;46263;44.726;10.396;2022-10-18T08:49:21;101770.06;;;21.05;65.59
60417;BME280;46263;44.726;10.396;2022-10-18T08:51:49;101769.50;;;21.06;65.73
60417;BME280;46263;44.726;10.396;2022-10-18T08:54:23;101769.72;;;21.08;65.40
60417;BME280;46263;44.726;10.396;2022-10-18T08:56:58;101767.06;;;21.10;65.72
60417;BME280;46263;44.726;10.396;2022-10-18T08:59:24;101763.44;;;21.10;65.81
60417;BME280;46263;44.726;10.396;2022-10-18T09:01:58;101764.22;;;21.10;65.65
60417;BME280;46263;44.726;10.396;2022-10-18T09:21:31;101764.59;;;21.07;65.70
60417;BME280;46263;44.726;10.396;2022-10-18T09:24:11;101764.59;;;21.07;65.89
60417;BME280;46263;44.726;10.396;2022-10-18T09:26:48;101762.50;;;21.07;65.99
60417;BME280;46263;44.726;10.396;2022-10-18T09:29:34;101760.81;;;21.12;65.56
60417;BME280;46263;44.726;10.396;2022-10-18T09:35:02;101755.69;;;21.10;65.69
60417;BME280;46263;44.726;10.396;2022-10-18T09:37:32;101755.13;;;21.12;65.61
60417;BME280;46263;44.726;10.396;2022-10-18T09:40:20;101759.09;;;21.09;65.64
60417;BME280;46263;44.726;10.396;2022-10-18T09:42:54;101748.28;;;21.07;65.67
60417;BME280;46263;44.726;10.396;2022-10-18T09:45:40;101750.38;;;21.07;65.64
60417;BME280;46263;44.726;10.396;2022-10-18T09:48:16;101740.88;;;21.04;65.77
60417;BME280;46263;44.726;10.396;2022-10-18T09:55:41;101731.00;;;21.05;65.93
60417;BME280;46263;44.726;10.396;2022-10-18T09:58:13;101726.09;;;21.06;65.64
60417;BME280;46263;44.726;10.396;2022-10-18T10:00:47;101725.91;;;21.04;65.53
60417;BME280;46263;44.726;10.396;2022-10-18T10:03:13;101724.56;;;21.05;65.98
60417;BME280;46263;44.726;10.396;2022-10-18T10:05:43;101725.31;;;21.05;65.90
60417;BME280;46263;44.726;10.396;2022-10-18T10:08:09;101718.13;;;21.04;65.78
60417;BME280;46263;44.726;10.396;2022-10-18T10:10:38;101726.66;;;21.04;65.88
60417;BME280;46263;44.726;10.396;2022-10-18T10:13:19;101721.53;;;21.03;65.75
60417;BME280;46263;44.726;10.396;2022-10-18T10:16:02;101721.72;;;21.05;65.58
60417;BME280;46263;44.726;10.396;2022-10-18T10:18:35;101714.53;;;21.04;65.75
60417;BME280;46263;44.726;10.396;2022-10-18T10:21:04;101720.97;;;21.04;65.68
60417;BME280;46263;44.726;10.396;2022-10-18T10:23:50;101719.47;;;21.03;65.80
60417;BME280;46263;44.726;10.396;2022-10-18T10:26:46;101715.84;;;21.03;65.78
60417;BME280;46263;44.726;10.396;2022-10-18T10:29:47;101716.63;;;21.03;65.62
60417;BME280;46263;44.726;10.396;2022-10-18T10:32:19;101708.63;;;21.02;65.93
60417;BME280;46263;44.726;10.396;2022-10-18T10:34:45;101707.31;;;21.03;65.76
60417;BME280;46263;44.726;10.396;2022-10-18T10:40:17;101699.34;;;21.01;65.91
60417;BME280;46263;44.726;10.396;2022-10-18T10:45:33;101687.41;;;21.03;65.53
60417;BME280;46263;44.726;10.396;2022-10-18T10:48:18;101684.38;;;21.01;65.74
60417;BME280;46263;44.726;10.396;2022-10-18T10:50:55;101680.41;;;21.04;65.80
60417;BME280;46263;44.726;10.396;2022-10-18T10:56:35;101668.06;;;21.01;65.72
60417;BME280;46263;44.726;10.396;2022-10-18T11:01:33;101667.50;;;21.03;65.67
60417;BME280;46263;44.726;10.396;2022-10-18T11:10:05;101654.44;;;21.00;65.70
60417;BME280;46263;44.726;10.396;2022-10-18T11:12:44;101638.13;;;21.00;65.64
60417;BME280;46263;44.726;10.396;2022-10-18T11:20:35;101621.81;;;21.01;65.69
60417;BME280;46263;44.726;10.396;2022-10-18T11:23:32;101624.66;;;21.01;65.69
60417;BME280;46263;44.726;10.396;2022-10-18T11:42:01;101589.78;;;21.00;65.88
60417;BME280;46263;44.726;10.396;2022-10-18T11:44:37;101581.25;;;21.00;65.53
60417;BME280;46263;44.726;10.396;2022-10-18T11:47:20;101583.34;;;21.00;65.61
60417;BME280;46263;44.726;10.396;2022-10-18T11:55:40;101568.94;;;20.98;65.74
60417;BME280;46263;44.726;10.396;2022-10-18T12:01:43;101558.31;;;20.98;65.83
60417;BME280;46263;44.726;10.396;2022-10-18T12:04:17;101543.53;;;21.00;65.66
60417;BME280;46263;44.726;10.396;2022-10-18T12:06:46;101541.25;;;20.98;65.40
60417;BME280;46263;44.726;10.396;2022-10-18T12:09:31;101546.94;;;20.98;65.67
60417;BME280;46263;44.726;10.396;2022-10-18T12:12:01;101539.94;;;20.99;65.41
60417;BME280;46263;44.726;10.396;2022-10-18T12:17:18;101529.69;;;21.04;65.84
60417;BME280;46263;44.726;10.396;2022-10-18T12:19:46;101527.06;;;21.06;65.67
60417;BME280;46263;44.726;10.396;2022-10-18T12:22:20;101529.50;;;21.09;65.71
60417;BME280;46263;44.726;10.396;2022-10-18T12:24:47;101518.88;;;21.10;65.68
60417;BME280;46263;44.726;10.396;2022-10-18T12:27:14;101519.09;;;21.12;65.48
60417;BME280;46263;44.726;10.396;2022-10-18T12:29:57;101513.41;;;21.12;65.57
60417;BME280;46263;44.726;10.396;2022-10-18T12:32:31;101507.91;;;21.14;65.73
60417;BME280;46263;44.726;10.396;2022-10-18T12:35:03;101506.59;;;21.15;65.74
60417;BME280;46263;44.726;10.396;2022-10-18T12:40:20;101489.50;;;21.15;65.74
60417;BME280;46263;44.726;10.396;2022-10-18T12:42:49;101487.41;;;21.15;65.91
60417;BME280;46263;44.726;10.396;2022-10-18T12:45:29;101485.16;;;21.14;65.93
60417;BME280;46263;44.726;10.396;2022-10-18T12:48:07;101485.34;;;21.16;65.73
60417;BME280;46263;44.726;10.396;2022-10-18T12:53:38;101461.06;;;21.15;65.51
60417;BME280;46263;44.726;10.396;2022-10-18T13:11:53;101436.63;;;21.19;65.69
60417;BME280;46263;44.726;10.396;2022-10-18T13:14:37;101433.00;;;21.19;65.61
60417;BME280;46263;44.726;10.396;2022-10-18T13:19:55;101433.78;;;21.19;65.95
60417;BME280;46263;44.726;10.396;2022-10-18T13:28:29;101433.19;;;21.21;65.78
60417;BME280;46263;44.726;10.396;2022-10-18T13:33:45;101425.41;;;21.21;65.85
60417;BME280;46263;44.726;10.396;2022-10-18T14:03:49;101406.84;;;21.13;65.74
60417;BME280;46263;44.726;10.396;2022-10-18T14:06:32;101412.91;;;21.17;65.90
60417;BME280;46263;44.726;10.396;2022-10-18T14:09:21;101405.34;;;21.19;65.80
60417;BME280;46263;44.726;10.396;2022-10-18T14:12:07;101405.34;;;21.19;65.65
60417;BME280;46263;44.726;10.396;2022-10-18T14:14:42;101411.56;;;21.18;65.69
60417;BME280;46263;44.726;10.396;2022-10-18T14:19:48;101409.88;;;21.15;65.65
60417;BME280;46263;44.726;10.396;2022-10-18T14:22:50;101397.00;;;21.14;65.98
60417;BME280;46263;44.726;10.396;2022-10-18T14:25:27;101400.22;;;21.10;65.82
60417;BME280;46263;44.726;10.396;2022-10-18T14:28:14;101402.50;;;21.12;65.61
60417;BME280;46263;44.726;10.396;2022-10-18T14:30:54;101402.69;;;21.14;65.74
60417;BME280;46263;44.726;10.396;2022-10-18T14:33:34;101397.38;;;21.10;65.52
60417;BME280;46263;44.726;10.396;2022-10-18T14:36:24;101406.84;;;21.13;65.52
60417;BME280;46263;44.726;10.396;2022-10-18T14:41:28;101387.13;;;21.15;65.76
60417;BME280;46263;44.726;10.396;2022-10-18T14:49:14;101380.13;;;21.16;65.67
60417;BME280;46263;44.726;10.396;2022-10-18T14:51:42;101377.44;;;21.18;65.44
60417;BME280;46263;44.726;10.396;2022-10-18T14:54:28;101375.19;;;21.16;65.47
60417;BME280;46263;44.726;10.396;2022-10-18T14:56:55;101374.44;;;21.16;66.00
60417;BME280;46263;44.726;10.396;2022-10-18T14:59:23;101370.25;;;21.17;65.62
60417;BME280;46263;44.726;10.396;2022-10-18T15:01:52;101374.59;;;21.18;65.69
60417;BME280;46263;44.726;10.396;2022-10-18T15:04:18;101374.59;;;21.18;65.82
60417;BME280;46263;44.726;10.396;2022-10-18T15:06:44;101363.22;;;21.18;65.79
60417;BME280;46263;44.726;10.396;2022-10-18T15:09:11;101368.75;;;21.16;66.14
60417;BME280;46263;44.726;10.396;2022-10-18T15:11:38;101365.91;;;21.16;65.84
60417;BME280;46263;44.726;10.396;2022-10-18T15:14:13;101366.25;;;21.12;66.00
60417;BME280;46263;44.726;10.396;2022-10-18T15:16:41;101361.16;;;21.11;65.84
60417;BME280;46263;44.726;10.396;2022-10-18T15:19:26;101364.78;;;21.11;65.74
60417;BME280;46263;44.726;10.396;2022-10-18T15:22:00;101355.28;;;21.09;66.08
60417;BME280;46263;44.726;10.396;2022-10-18T15:26:55;101355.66;;;21.13;65.83
60417;BME280;46263;44.726;10.396;2022-10-18T15:29:24;101354.72;;;21.10;65.90
60417;BME280;46263;44.726;10.396;2022-10-18T15:31:50;101346.19;;;21.10;66.01
60417;BME280;46263;44.726;10.396;2022-10-18T15:34:22;101354.16;;;21.12;65.88
60417;BME280;46263;44.726;10.396;2022-10-18T15:36:50;101341.25;;;21.11;66.13
60417;BME280;46263;44.726;10.396;2022-10-18T15:39:22;101345.44;;;21.10;65.99
60417;BME280;46263;44.726;10.396;2022-10-18T15:41:56;101341.84;;;21.09;66.20